createdAt,value
2023-08-19T00:02:48.092Z,12.37
2023-08-19T00:06:14.356Z,14.38
2023-08-19T00:09:39.843Z,13.73
2023-08-19T00:13:04.411Z,12.25
2023-08-19T00:16:30.290Z,13.82
2023-08-19T00:19:57.701Z,13.00
2023-08-19T00:23:24.419Z,12.10
2023-08-19T00:26:49.172Z,11.50
2023-08-19T00:30:14.356Z,11.57
2023-08-19T00:33:40.368Z,13.88
2023-08-19T00:37:03.830Z,12.53
2023-08-19T00:40:28.815Z,11.98
2023-08-19T00:43:52.820Z,13.18
2023-08-19T00:47:17.463Z,12.60
2023-08-19T00:50:42.825Z,11.75
2023-08-19T00:54:07.772Z,11.57
2023-08-19T00:57:31.917Z,11.20
2023-08-19T01:00:58.137Z,13.27
2023-08-19T01:04:22.546Z,13.02
2023-08-19T01:07:51.785Z,11.30
2023-08-19T01:11:19.544Z,10.93
2023-08-19T01:14:48.639Z,13.65
2023-08-19T01:18:12.940Z,12.25
2023-08-19T01:21:37.113Z,10.93
2023-08-19T01:25:02.607Z,12.68
2023-08-19T01:28:26.803Z,12.80
2023-08-19T01:31:50.602Z,14.15
2023-08-19T01:35:15.576Z,13.38
2023-08-19T01:38:47.355Z,17.73
2023-08-19T01:42:14.426Z,13.65
2023-08-19T01:45:38.362Z,11.67
2023-08-19T01:49:02.901Z,12.32
2023-08-19T01:52:26.380Z,13.43
2023-08-19T01:55:50.749Z,13.68
2023-08-19T01:59:16.211Z,13.82
2023-08-19T02:02:40.804Z,13.13
2023-08-19T02:06:05.697Z,13.57
2023-08-19T02:09:30.545Z,13.50
2023-08-19T02:12:54.937Z,13.62
2023-08-19T02:16:21.005Z,13.68
2023-08-19T02:19:45.974Z,12.77
2023-08-19T02:23:10.015Z,13.43
2023-08-19T02:26:34.201Z,11.50
2023-08-19T02:29:58.393Z,12.10
2023-08-19T02:33:23.522Z,13.90
2023-08-19T02:36:48.157Z,13.03
2023-08-19T02:40:12.886Z,15.52
2023-08-19T02:43:37.700Z,13.23
2023-08-19T02:47:01.246Z,14.15
2023-08-19T02:50:27.175Z,14.23
2023-08-19T02:53:50.724Z,13.40
2023-08-19T02:57:14.810Z,14.93
2023-08-19T03:00:38.872Z,13.45
2023-08-19T03:04:02.988Z,14.85
2023-08-19T03:07:28.138Z,12.82
2023-08-19T03:10:52.368Z,15.90
2023-08-19T03:14:15.846Z,14.50
2023-08-19T03:17:40.115Z,13.52
2023-08-19T03:21:04.363Z,15.60
2023-08-19T03:24:29.896Z,15.25
2023-08-19T03:27:53.572Z,14.13
2023-08-19T03:31:18.000Z,14.38
2023-08-19T03:34:41.785Z,14.87
2023-08-19T03:38:06.473Z,12.55
2023-08-19T03:41:31.871Z,13.55
2023-08-19T03:44:56.282Z,17.63
2023-08-19T03:48:19.849Z,16.45
2023-08-19T03:51:44.013Z,16.23
2023-08-19T03:55:08.288Z,14.63
2023-08-19T03:58:33.928Z,15.25
2023-08-19T04:01:57.867Z,14.30
2023-08-19T04:05:22.142Z,16.80
2023-08-19T04:08:45.642Z,14.60
2023-08-19T04:12:10.336Z,15.43
2023-08-19T04:15:36.274Z,17.02
2023-08-19T04:19:00.949Z,15.63
2023-08-19T04:22:25.249Z,16.60
2023-08-19T04:25:52.064Z,17.12
2023-08-19T04:29:15.749Z,16.10
2023-08-19T04:32:41.824Z,14.75
2023-08-19T04:36:06.208Z,15.53
2023-08-19T04:39:30.725Z,15.35
2023-08-19T04:42:55.011Z,15.63
2023-08-19T04:46:19.304Z,17.75
2023-08-19T04:49:44.866Z,19.30
2023-08-19T04:53:09.181Z,15.50
2023-08-19T04:56:32.677Z,14.90
2023-08-19T04:59:56.993Z,16.67
2023-08-19T05:03:20.636Z,16.73
2023-08-19T05:06:46.397Z,14.87
2023-08-19T05:10:11.316Z,17.40
2023-08-19T05:13:35.264Z,14.73
2023-08-19T05:17:01.315Z,16.23
2023-08-19T05:20:25.602Z,15.32
2023-08-19T05:23:50.805Z,14.18
2023-08-19T05:27:15.291Z,16.33
2023-08-19T05:30:39.537Z,15.25
2023-08-19T05:34:03.928Z,18.15
2023-08-19T05:37:28.090Z,13.88
2023-08-19T05:40:53.495Z,13.57
2023-08-19T05:44:18.011Z,14.57
2023-08-19T05:47:42.502Z,14.63
2023-08-19T05:51:06.950Z,16.45
2023-08-19T05:54:31.648Z,15.77
2023-08-19T05:57:57.452Z,15.30
2023-08-19T06:01:24.634Z,16.75
2023-08-19T06:04:50.111Z,16.40
2023-08-19T06:08:16.116Z,17.52
2023-08-19T06:11:49.120Z,17.37
2023-08-19T06:15:14.788Z,17.85
2023-08-19T06:18:40.268Z,18.98
2023-08-19T06:22:04.513Z,19.05
2023-08-19T06:25:29.256Z,18.77
2023-08-19T06:28:53.640Z,16.23
2023-08-19T06:32:20.709Z,17.30
2023-08-19T06:35:45.179Z,17.05
2023-08-19T06:39:10.322Z,18.42
2023-08-19T06:42:34.784Z,15.75
2023-08-19T06:46:00.275Z,16.60
2023-08-19T06:49:26.607Z,15.50
2023-08-19T06:52:51.684Z,17.02
2023-08-19T06:56:19.258Z,18.67
2023-08-19T06:59:44.019Z,21.08
2023-08-19T07:03:07.987Z,30.63
2023-08-19T07:06:33.867Z,22.40
2023-08-19T07:09:58.234Z,17.52
2023-08-19T07:13:23.410Z,26.95
2023-08-19T07:16:47.051Z,18.52
2023-08-19T07:20:11.653Z,18.87
2023-08-19T07:23:36.667Z,21.08
2023-08-19T07:27:01.468Z,21.05
2023-08-19T07:30:26.285Z,23.90
2023-08-19T07:33:50.508Z,22.37
2023-08-19T07:37:14.166Z,18.47
2023-08-19T07:40:39.796Z,26.45
2023-08-19T07:44:03.223Z,17.50
2023-08-19T07:47:27.328Z,18.87
2023-08-19T07:50:51.022Z,22.35
2023-08-19T07:54:16.180Z,18.87
2023-08-19T07:57:41.201Z,19.23
2023-08-19T08:01:05.581Z,18.87
2023-08-19T08:04:29.840Z,16.52
2023-08-19T08:07:53.214Z,18.70
2023-08-19T08:11:17.955Z,20.77
2023-08-19T08:14:43.177Z,20.62
2023-08-19T08:18:07.581Z,20.12
2023-08-19T08:21:30.825Z,17.12
2023-08-19T08:24:54.932Z,16.75
2023-08-19T08:28:18.245Z,18.43
2023-08-19T08:31:43.451Z,17.27
2023-08-19T08:35:07.540Z,16.27
2023-08-19T08:38:32.061Z,20.58
2023-08-19T08:41:57.728Z,16.48
2023-08-19T08:45:22.677Z,19.43
2023-08-19T08:48:48.665Z,16.98
2023-08-19T08:52:12.704Z,15.07
2023-08-19T08:55:36.507Z,16.10
2023-08-19T08:59:01.115Z,14.13
2023-08-19T09:02:24.889Z,15.10
2023-08-19T09:05:51.701Z,14.98
2023-08-19T09:09:16.404Z,15.45
2023-08-19T09:12:40.630Z,13.62
2023-08-19T09:16:04.144Z,13.43
2023-08-19T09:19:28.367Z,16.57
2023-08-19T09:22:53.440Z,12.73
2023-08-19T09:26:17.612Z,13.27
2023-08-19T09:29:44.687Z,12.23
2023-08-19T09:33:08.730Z,12.82
2023-08-19T09:36:32.356Z,12.33
2023-08-19T09:39:58.637Z,16.10
2023-08-19T09:43:22.207Z,11.32
2023-08-19T09:46:47.682Z,12.90
2023-08-19T09:50:12.580Z,11.12
2023-08-19T09:53:37.215Z,8.83
2023-08-19T09:57:02.531Z,9.95
2023-08-19T10:00:26.790Z,10.90
2023-08-19T10:03:53.001Z,9.32
2023-08-19T10:07:18.236Z,8.65
2023-08-19T10:10:43.221Z,8.87
2023-08-19T10:14:08.860Z,10.90
2023-08-19T10:17:33.779Z,10.13
2023-08-19T10:21:00.464Z,8.55
2023-08-19T10:24:24.927Z,8.43
2023-08-19T10:27:49.078Z,8.17
2023-08-19T10:31:16.376Z,9.93
2023-08-19T10:34:41.391Z,9.80
2023-08-19T10:38:07.258Z,10.15
2023-08-19T10:41:31.677Z,7.32
2023-08-19T10:44:55.616Z,7.47
2023-08-19T10:48:33.770Z,8.82
2023-08-19T10:52:02.200Z,8.32
2023-08-19T10:55:26.484Z,7.65
2023-08-19T10:58:51.808Z,8.73
2023-08-19T11:02:15.980Z,6.20
2023-08-19T11:05:43.073Z,5.75
2023-08-19T11:09:08.833Z,6.68
2023-08-19T11:12:33.320Z,8.10
2023-08-19T11:16:06.012Z,6.00
2023-08-19T11:19:32.379Z,6.73
2023-08-19T11:22:57.877Z,6.75
2023-08-19T11:26:21.936Z,7.43
2023-08-19T11:29:47.711Z,7.32
2023-08-19T11:33:11.739Z,6.50
2023-08-19T11:36:35.949Z,7.82
2023-08-19T11:40:08.773Z,7.80
2023-08-19T11:43:47.624Z,6.80
2023-08-19T11:47:11.346Z,7.20
2023-08-19T11:50:36.400Z,8.73
2023-08-19T11:54:04.537Z,7.40
2023-08-19T11:57:34.361Z,8.03
2023-08-19T12:00:58.454Z,5.95
2023-08-19T12:04:22.732Z,7.47
2023-08-19T12:07:46.557Z,7.85
2023-08-19T12:11:10.841Z,8.00
2023-08-19T12:14:35.892Z,8.48
2023-08-19T12:17:59.778Z,7.90
2023-08-19T12:21:23.576Z,7.10
2023-08-19T12:24:47.625Z,7.60
2023-08-19T12:28:11.625Z,7.47
2023-08-19T12:31:37.111Z,7.18
2023-08-19T12:35:01.163Z,9.32
2023-08-19T12:38:25.540Z,7.27
2023-08-19T12:41:49.274Z,8.82
2023-08-19T12:45:13.822Z,8.65
2023-08-19T12:48:38.868Z,7.28
2023-08-19T12:52:03.423Z,7.27
2023-08-19T12:55:27.456Z,8.75
2023-08-19T12:58:51.744Z,10.95
2023-08-19T13:02:15.554Z,9.32
2023-08-19T13:05:41.059Z,8.97
2023-08-19T13:09:04.647Z,7.40
2023-08-19T13:12:28.854Z,8.60
2023-08-19T13:15:55.559Z,8.82
2023-08-19T13:19:19.628Z,8.30
2023-08-19T13:22:45.080Z,7.70
2023-08-19T13:26:09.212Z,8.90
2023-08-19T13:29:33.047Z,9.82
2023-08-19T13:32:57.475Z,9.17
2023-08-19T13:36:21.721Z,9.85
2023-08-19T13:39:47.502Z,9.15
2023-08-19T13:43:11.841Z,9.50
2023-08-19T13:46:36.399Z,12.73
2023-08-19T13:50:00.258Z,9.65
2023-08-19T13:53:24.753Z,11.15
2023-08-19T13:56:51.081Z,9.18
2023-08-19T14:00:17.737Z,8.90
2023-08-19T14:03:42.174Z,8.57
2023-08-19T14:07:05.868Z,12.15
2023-08-19T14:10:30.257Z,7.55
2023-08-19T14:13:55.292Z,10.73
2023-08-19T14:17:19.695Z,10.70
2023-08-19T14:20:43.526Z,11.38
2023-08-19T14:24:08.545Z,12.18
2023-08-19T14:27:32.206Z,8.30
2023-08-19T14:30:58.264Z,9.98
2023-08-19T14:34:21.985Z,12.40
2023-08-19T14:37:46.489Z,9.00
2023-08-19T14:41:10.450Z,10.17
2023-08-19T14:44:34.719Z,10.88
2023-08-19T14:47:59.839Z,9.48
2023-08-19T14:51:24.355Z,9.68
2023-08-19T14:54:48.168Z,9.07
2023-08-19T14:58:13.374Z,8.40
2023-08-19T15:01:37.184Z,12.85
2023-08-19T15:05:02.960Z,10.88
2023-08-19T15:08:27.006Z,8.93
2023-08-19T15:11:50.962Z,12.20
2023-08-19T15:15:19.229Z,9.05
2023-08-19T15:18:43.913Z,12.88
2023-08-19T15:22:09.154Z,12.25
2023-08-19T15:25:33.581Z,11.88
2023-08-19T15:28:57.520Z,11.25
2023-08-19T15:32:22.121Z,11.43
2023-08-19T15:35:45.876Z,9.50
2023-08-19T15:39:11.879Z,10.60
2023-08-19T15:42:35.590Z,10.85
2023-08-19T15:45:59.935Z,9.93
2023-08-19T15:49:23.802Z,13.10
2023-08-19T15:52:47.932Z,9.32
2023-08-19T15:56:12.661Z,9.77
2023-08-19T15:59:36.772Z,10.82
2023-08-19T16:03:00.730Z,10.02
2023-08-19T16:06:24.916Z,12.13
2023-08-19T16:09:49.190Z,12.35
2023-08-19T16:13:14.926Z,11.37
2023-08-19T16:16:38.810Z,9.80
2023-08-19T16:20:03.200Z,12.23
2023-08-19T16:23:26.812Z,10.50
2023-08-19T16:26:50.855Z,10.63
2023-08-19T16:30:36.066Z,9.80
2023-08-19T16:34:00.489Z,13.38
2023-08-19T16:37:24.691Z,9.63
2023-08-19T16:40:49.080Z,13.33
2023-08-19T16:44:12.965Z,8.68
2023-08-19T16:47:40.570Z,11.70
2023-08-19T16:51:05.103Z,11.90
2023-08-19T16:54:29.646Z,10.13
2023-08-19T16:57:53.264Z,9.75
2023-08-19T17:01:17.677Z,11.77
2023-08-19T17:04:45.979Z,9.80
2023-08-19T17:08:10.402Z,11.38
2023-08-19T17:11:34.633Z,11.35
2023-08-19T17:15:07.930Z,11.77
2023-08-19T17:18:31.448Z,11.48
2023-08-19T17:21:57.278Z,23.73
2023-08-19T17:25:21.062Z,21.27
2023-08-19T17:28:45.680Z,80.18
2023-08-19T17:32:09.494Z,127.22
2023-08-19T17:35:36.626Z,95.12
2023-08-19T17:39:01.953Z,54.78
2023-08-19T17:42:25.639Z,23.87
2023-08-19T17:45:49.683Z,18.62
2023-08-19T17:49:13.781Z,14.80
2023-08-19T17:52:37.672Z,19.77
2023-08-19T17:56:04.141Z,20.33
2023-08-19T17:59:28.198Z,21.62
2023-08-19T18:02:52.477Z,15.95
2023-08-19T18:06:17.247Z,20.50
2023-08-19T18:09:41.457Z,47.33
2023-08-19T18:13:08.124Z,40.12
2023-08-19T18:16:32.730Z,39.78
2023-08-19T18:19:56.960Z,31.40
2023-08-19T18:23:23.849Z,18.43
2023-08-19T18:26:48.315Z,22.23
2023-08-19T18:30:14.324Z,18.90
2023-08-19T18:33:38.734Z,15.85
2023-08-19T18:37:05.348Z,21.77
2023-08-19T18:40:30.193Z,16.57
2023-08-19T18:43:54.311Z,14.10
2023-08-19T18:47:20.604Z,17.27
2023-08-19T18:50:46.218Z,14.43
2023-08-19T18:54:11.026Z,14.87
2023-08-19T18:57:35.875Z,15.23
2023-08-19T19:01:04.882Z,17.58
2023-08-19T19:04:33.392Z,13.07
2023-08-19T19:08:01.011Z,16.40
2023-08-19T19:11:25.270Z,15.97
2023-08-19T19:14:49.496Z,14.32
2023-08-19T19:18:14.929Z,16.73
2023-08-19T19:21:43.477Z,15.35
2023-08-19T19:25:07.649Z,14.55
2023-08-19T19:28:32.093Z,16.87
2023-08-19T19:31:56.730Z,14.95
2023-08-19T19:35:22.775Z,15.90
2023-08-19T19:38:49.517Z,14.10
2023-08-19T19:42:15.447Z,14.30
2023-08-19T19:45:40.318Z,13.88
2023-08-19T19:49:05.193Z,13.77
2023-08-19T19:52:30.464Z,15.98
2023-08-19T19:55:58.942Z,15.15
2023-08-19T19:59:23.653Z,16.30
2023-08-19T20:02:48.773Z,18.65
2023-08-19T20:06:13.852Z,15.20
2023-08-19T20:09:38.716Z,17.80
2023-08-19T20:13:05.594Z,20.00
2023-08-19T20:16:30.423Z,19.17
2023-08-19T20:20:02.470Z,16.65
2023-08-19T20:23:28.458Z,16.35
2023-08-19T20:26:53.245Z,15.68
2023-08-19T20:30:19.711Z,17.62
2023-08-19T20:33:45.028Z,15.27
2023-08-19T20:37:09.070Z,16.60
2023-08-19T20:40:35.099Z,18.95
2023-08-19T20:44:15.494Z,19.30
2023-08-19T20:47:41.059Z,18.58
2023-08-19T20:51:05.668Z,18.92
2023-08-19T20:54:30.257Z,19.65
2023-08-19T20:57:54.225Z,18.52
2023-08-19T21:01:19.065Z,18.17
2023-08-19T21:04:44.273Z,24.73
2023-08-19T21:08:08.646Z,19.48
2023-08-19T21:11:32.447Z,20.80
2023-08-19T21:14:56.734Z,22.80
2023-08-19T21:18:22.027Z,19.02
2023-08-19T21:21:48.898Z,18.25
2023-08-19T21:25:12.821Z,18.87
2023-08-19T21:28:37.056Z,20.60
2023-08-19T21:32:00.633Z,19.63
2023-08-19T21:35:24.723Z,16.40
2023-08-19T21:38:50.899Z,16.45
2023-08-19T21:42:15.136Z,19.90
2023-08-19T21:45:38.932Z,18.15
2023-08-19T21:49:03.010Z,17.55
2023-08-19T21:52:26.582Z,15.90
2023-08-19T21:55:52.031Z,18.12
2023-08-19T21:59:16.526Z,19.33
2023-08-19T22:02:40.747Z,15.18
2023-08-19T22:06:06.634Z,16.50
2023-08-19T22:09:31.955Z,16.92
2023-08-19T22:12:57.385Z,17.33
2023-08-19T22:16:21.289Z,19.25
2023-08-19T22:19:45.514Z,16.45
2023-08-19T22:23:09.228Z,15.02
2023-08-19T22:26:33.553Z,18.02
2023-08-19T22:29:59.033Z,14.83
2023-08-19T22:33:22.843Z,15.90
2023-08-19T22:36:46.424Z,16.00
2023-08-19T22:40:11.518Z,18.25
2023-08-19T22:43:35.333Z,13.70
2023-08-19T22:47:00.543Z,17.10
2023-08-19T22:50:24.423Z,18.70
2023-08-19T22:53:48.312Z,14.90
2023-08-19T22:57:11.967Z,16.00
2023-08-19T23:00:35.934Z,15.90
2023-08-19T23:04:01.033Z,20.17
2023-08-19T23:07:25.296Z,14.98
2023-08-19T23:10:48.927Z,18.73
2023-08-19T23:14:13.211Z,14.55
2023-08-19T23:17:37.078Z,18.60
2023-08-19T23:21:02.877Z,15.63
2023-08-19T23:24:26.762Z,15.82
2023-08-19T23:27:51.020Z,18.17
2023-08-19T23:31:14.755Z,15.82
2023-08-19T23:34:39.035Z,18.55
2023-08-19T23:38:04.325Z,15.52
2023-08-19T23:41:30.877Z,18.33
2023-08-19T23:44:54.657Z,17.08
2023-08-19T23:48:18.982Z,17.62
2023-08-19T23:51:42.401Z,15.48
2023-08-19T23:55:10.674Z,19.25
2023-08-19T23:58:34.828Z,13.03
